sensor_id;sensor_type;location;lat;lon;timestamp;P1;durP1;ratioP1;P2;durP2;ratioP2
29238;SDS011;16267;48.194;11.546;2023-01-30T00:00:44;40.33;;;21.73;;
29238;SDS011;16267;48.194;11.546;2023-01-30T00:03:10;40.30;;;22.02;;
29238;SDS011;16267;48.194;11.546;2023-01-30T00:05:36;46.08;;;23.42;;
29238;SDS011;16267;48.194;11.546;2023-01-30T00:08:01;43.30;;;22.05;;
29238;SDS011;16267;48.194;11.546;2023-01-30T00:10:27;47.83;;;24.17;;
29238;SDS011;16267;48.194;11.546;2023-01-30T00:12:53;42.28;;;22.63;;
29238;SDS011;16267;48.194;11.546;2023-01-30T00:15:19;40.90;;;21.60;;
29238;SDS011;16267;48.194;11.546;2023-01-30T00:17:44;43.80;;;22.48;;
29238;SDS011;16267;48.194;11.546;2023-01-30T00:20:10;49.20;;;24.02;;
29238;SDS011;16267;48.194;11.546;2023-01-30T00:22:36;42.92;;;21.95;;
29238;SDS011;16267;48.194;11.546;2023-01-30T00:25:02;42.45;;;22.40;;
29238;SDS011;16267;48.194;11.546;2023-01-30T00:27:28;44.67;;;23.05;;
29238;SDS011;16267;48.194;11.546;2023-01-30T00:29:54;42.25;;;22.52;;
29238;SDS011;16267;48.194;11.546;2023-01-30T00:32:20;41.13;;;22.52;;
29238;SDS011;16267;48.194;11.546;2023-01-30T00:34:45;47.00;;;23.25;;
29238;SDS011;16267;48.194;11.546;2023-01-30T00:37:11;47.13;;;24.30;;
29238;SDS011;16267;48.194;11.546;2023-01-30T00:39:37;44.35;;;22.45;;
29238;SDS011;16267;48.194;11.546;2023-01-30T00:42:03;47.60;;;23.27;;
29238;SDS011;16267;48.194;11.546;2023-01-30T00:44:48;48.45;;;23.40;;
29238;SDS011;16267;48.194;11.546;2023-01-30T00:47:32;43.08;;;23.20;;
29238;SDS011;16267;48.194;11.546;2023-01-30T00:49:58;47.65;;;23.55;;
29238;SDS011;16267;48.194;11.546;2023-01-30T00:52:24;46.40;;;23.52;;
29238;SDS011;16267;48.194;11.546;2023-01-30T00:54:49;45.97;;;22.98;;
29238;SDS011;16267;48.194;11.546;2023-01-30T00:57:16;44.05;;;23.20;;
29238;SDS011;16267;48.194;11.546;2023-01-30T00:59:42;52.60;;;24.80;;
29238;SDS011;16267;48.194;11.546;2023-01-30T01:02:08;44.83;;;23.75;;
29238;SDS011;16267;48.194;11.546;2023-01-30T01:04:34;47.67;;;24.85;;
29238;SDS011;16267;48.194;11.546;2023-01-30T01:07:07;47.22;;;24.50;;
29238;SDS011;16267;48.194;11.546;2023-01-30T01:09:37;51.10;;;24.48;;
29238;SDS011;16267;48.194;11.546;2023-01-30T01:12:04;43.78;;;22.30;;
29238;SDS011;16267;48.194;11.546;2023-01-30T01:14:30;42.00;;;22.88;;
29238;SDS011;16267;48.194;11.546;2023-01-30T01:16:57;49.67;;;23.92;;
29238;SDS011;16267;48.194;11.546;2023-01-30T01:19:22;46.90;;;23.83;;
29238;SDS011;16267;48.194;11.546;2023-01-30T01:21:48;45.97;;;23.35;;
29238;SDS011;16267;48.194;11.546;2023-01-30T01:24:14;45.30;;;24.33;;
29238;SDS011;16267;48.194;11.546;2023-01-30T01:26:41;44.22;;;23.52;;
29238;SDS011;16267;48.194;11.546;2023-01-30T01:29:10;45.08;;;24.10;;
29238;SDS011;16267;48.194;11.546;2023-01-30T01:31:40;47.47;;;23.67;;
29238;SDS011;16267;48.194;11.546;2023-01-30T01:34:09;49.38;;;23.77;;
29238;SDS011;16267;48.194;11.546;2023-01-30T01:36:35;42.63;;;23.08;;
29238;SDS011;16267;48.194;11.546;2023-01-30T01:39:02;43.75;;;22.52;;
29238;SDS011;16267;48.194;11.546;2023-01-30T01:41:29;45.38;;;23.05;;
29238;SDS011;16267;48.194;11.546;2023-01-30T01:43:59;46.00;;;23.33;;
29238;SDS011;16267;48.194;11.546;2023-01-30T01:46:37;44.33;;;22.45;;
29238;SDS011;16267;48.194;11.546;2023-01-30T01:49:22;43.20;;;21.85;;
29238;SDS011;16267;48.194;11.546;2023-01-30T01:51:54;44.53;;;21.30;;
29238;SDS011;16267;48.194;11.546;2023-01-30T01:57:17;44.25;;;23.58;;
29238;SDS011;16267;48.194;11.546;2023-01-30T01:59:51;46.55;;;22.77;;
29238;SDS011;16267;48.194;11.546;2023-01-30T02:02:25;47.50;;;23.42;;
29238;SDS011;16267;48.194;11.546;2023-01-30T02:04:52;46.83;;;22.67;;
29238;SDS011;16267;48.194;11.546;2023-01-30T02:07:51;49.33;;;24.10;;
29238;SDS011;16267;48.194;11.546;2023-01-30T02:10:33;47.55;;;23.42;;
29238;SDS011;16267;48.194;11.546;2023-01-30T02:13:07;46.65;;;23.20;;
29238;SDS011;16267;48.194;11.546;2023-01-30T02:15:33;45.83;;;22.70;;
29238;SDS011;16267;48.194;11.546;2023-01-30T02:17:59;45.65;;;22.67;;
29238;SDS011;16267;48.194;11.546;2023-01-30T02:34:00;46.88;;;22.63;;
29238;SDS011;16267;48.194;11.546;2023-01-30T02:37:01;43.70;;;21.73;;
29238;SDS011;16267;48.194;11.546;2023-01-30T02:39:50;45.88;;;23.17;;
29238;SDS011;16267;48.194;11.546;2023-01-30T02:46:11;48.25;;;23.52;;
29238;SDS011;16267;48.194;11.546;2023-01-30T02:48:46;44.10;;;23.50;;
29238;SDS011;16267;48.194;11.546;2023-01-30T02:51:37;43.70;;;22.00;;
29238;SDS011;16267;48.194;11.546;2023-01-30T02:54:08;47.65;;;23.80;;
29238;SDS011;16267;48.194;11.546;2023-01-30T02:59:16;45.38;;;22.90;;
29238;SDS011;16267;48.194;11.546;2023-01-30T03:08:03;48.35;;;23.75;;
29238;SDS011;16267;48.194;11.546;2023-01-30T03:11:05;50.25;;;24.58;;
29238;SDS011;16267;48.194;11.546;2023-01-30T03:19:02;49.47;;;23.23;;
29238;SDS011;16267;48.194;11.546;2023-01-30T03:21:31;49.20;;;26.15;;
29238;SDS011;16267;48.194;11.546;2023-01-30T03:23:57;53.45;;;25.33;;
29238;SDS011;16267;48.194;11.546;2023-01-30T03:26:24;54.10;;;26.05;;
29238;SDS011;16267;48.194;11.546;2023-01-30T03:28:54;52.25;;;26.48;;
29238;SDS011;16267;48.194;11.546;2023-01-30T03:31:21;48.58;;;24.40;;
29238;SDS011;16267;48.194;11.546;2023-01-30T03:33:46;49.47;;;25.85;;
29238;SDS011;16267;48.194;11.546;2023-01-30T03:36:12;50.35;;;24.98;;
29238;SDS011;16267;48.194;11.546;2023-01-30T03:38:38;53.38;;;26.33;;
29238;SDS011;16267;48.194;11.546;2023-01-30T03:41:04;54.47;;;26.55;;
29238;SDS011;16267;48.194;11.546;2023-01-30T03:43:30;54.13;;;26.60;;
29238;SDS011;16267;48.194;11.546;2023-01-30T03:45:56;54.35;;;27.38;;
29238;SDS011;16267;48.194;11.546;2023-01-30T03:48:21;52.25;;;25.92;;
29238;SDS011;16267;48.194;11.546;2023-01-30T03:50:47;50.72;;;25.80;;
29238;SDS011;16267;48.194;11.546;2023-01-30T03:53:13;49.42;;;24.45;;
29238;SDS011;16267;48.194;11.546;2023-01-30T03:55:39;52.25;;;25.77;;
29238;SDS011;16267;48.194;11.546;2023-01-30T04:00:33;51.10;;;26.00;;
29238;SDS011;16267;48.194;11.546;2023-01-30T04:02:59;48.53;;;24.90;;
29238;SDS011;16267;48.194;11.546;2023-01-30T04:05:25;49.20;;;24.23;;
29238;SDS011;16267;48.194;11.546;2023-01-30T04:07:53;49.42;;;24.73;;
29238;SDS011;16267;48.194;11.546;2023-01-30T04:10:21;49.85;;;25.48;;
29238;SDS011;16267;48.194;11.546;2023-01-30T04:12:47;52.75;;;25.95;;
29238;SDS011;16267;48.194;11.546;2023-01-30T04:15:14;53.63;;;25.55;;
29238;SDS011;16267;48.194;11.546;2023-01-30T04:17:41;52.13;;;25.33;;
29238;SDS011;16267;48.194;11.546;2023-01-30T04:20:08;46.65;;;23.95;;
29238;SDS011;16267;48.194;11.546;2023-01-30T04:25:04;45.33;;;24.08;;
29238;SDS011;16267;48.194;11.546;2023-01-30T04:27:30;46.80;;;24.50;;
29238;SDS011;16267;48.194;11.546;2023-01-30T04:29:56;47.30;;;24.48;;
29238;SDS011;16267;48.194;11.546;2023-01-30T04:32:21;49.95;;;25.00;;
29238;SDS011;16267;48.194;11.546;2023-01-30T04:34:47;50.00;;;25.13;;
29238;SDS011;16267;48.194;11.546;2023-01-30T04:37:13;48.95;;;25.52;;
29238;SDS011;16267;48.194;11.546;2023-01-30T04:39:38;50.80;;;25.17;;
29238;SDS011;16267;48.194;11.546;2023-01-30T04:42:04;54.15;;;26.17;;
29238;SDS011;16267;48.194;11.546;2023-01-30T04:44:30;50.05;;;24.58;;
29238;SDS011;16267;48.194;11.546;2023-01-30T04:46:56;51.10;;;25.15;;
29238;SDS011;16267;48.194;11.546;2023-01-30T04:49:21;49.55;;;25.65;;
29238;SDS011;16267;48.194;11.546;2023-01-30T04:51:47;44.63;;;24.30;;
29238;SDS011;16267;48.194;11.546;2023-01-30T04:54:13;50.25;;;25.60;;
29238;SDS011;16267;48.194;11.546;2023-01-30T04:56:39;50.80;;;24.40;;
29238;SDS011;16267;48.194;11.546;2023-01-30T04:59:04;48.28;;;24.95;;
29238;SDS011;16267;48.194;11.546;2023-01-30T05:01:34;50.17;;;25.35;;
29238;SDS011;16267;48.194;11.546;2023-01-30T05:04:03;51.13;;;24.42;;
29238;SDS011;16267;48.194;11.546;2023-01-30T05:06:31;48.50;;;23.80;;
29238;SDS011;16267;48.194;11.546;2023-01-30T05:08:58;46.15;;;23.02;;
29238;SDS011;16267;48.194;11.546;2023-01-30T05:11:24;46.70;;;23.48;;
29238;SDS011;16267;48.194;11.546;2023-01-30T05:13:52;49.97;;;24.98;;
29238;SDS011;16267;48.194;11.546;2023-01-30T05:16:19;44.33;;;23.27;;
29238;SDS011;16267;48.194;11.546;2023-01-30T05:18:47;47.15;;;23.70;;
29238;SDS011;16267;48.194;11.546;2023-01-30T05:21:14;53.38;;;25.45;;
29238;SDS011;16267;48.194;11.546;2023-01-30T05:23:50;46.85;;;24.20;;
29238;SDS011;16267;48.194;11.546;2023-01-30T05:26:17;47.72;;;24.58;;
29238;SDS011;16267;48.194;11.546;2023-01-30T05:28:43;43.72;;;22.45;;
29238;SDS011;16267;48.194;11.546;2023-01-30T05:31:10;50.28;;;24.10;;
29238;SDS011;16267;48.194;11.546;2023-01-30T05:33:38;46.10;;;23.15;;
29238;SDS011;16267;48.194;11.546;2023-01-30T05:36:06;48.95;;;24.17;;
29238;SDS011;16267;48.194;11.546;2023-01-30T05:38:37;46.70;;;23.70;;
29238;SDS011;16267;48.194;11.546;2023-01-30T05:41:04;49.35;;;24.10;;
29238;SDS011;16267;48.194;11.546;2023-01-30T05:43:32;47.50;;;24.00;;
29238;SDS011;16267;48.194;11.546;2023-01-30T05:46:01;46.38;;;23.65;;
29238;SDS011;16267;48.194;11.546;2023-01-30T05:48:29;45.78;;;23.05;;
29238;SDS011;16267;48.194;11.546;2023-01-30T05:50:57;44.45;;;22.73;;
29238;SDS011;16267;48.194;11.546;2023-01-30T05:53:25;49.15;;;25.85;;
29238;SDS011;16267;48.194;11.546;2023-01-30T05:55:54;45.33;;;22.70;;
29238;SDS011;16267;48.194;11.546;2023-01-30T05:58:21;45.72;;;22.55;;
29238;SDS011;16267;48.194;11.546;2023-01-30T06:00:47;45.42;;;22.90;;
29238;SDS011;16267;48.194;11.546;2023-01-30T06:03:13;45.28;;;23.27;;
29238;SDS011;16267;48.194;11.546;2023-01-30T06:05:39;45.67;;;22.15;;
29238;SDS011;16267;48.194;11.546;2023-01-30T06:08:04;44.92;;;22.90;;
29238;SDS011;16267;48.194;11.546;2023-01-30T06:10:32;47.25;;;23.15;;
29238;SDS011;16267;48.194;11.546;2023-01-30T06:12:58;47.10;;;21.25;;
29238;SDS011;16267;48.194;11.546;2023-01-30T06:15:24;42.17;;;22.42;;
29238;SDS011;16267;48.194;11.546;2023-01-30T06:17:50;41.83;;;20.75;;
29238;SDS011;16267;48.194;11.546;2023-01-30T06:20:16;38.80;;;21.08;;
29238;SDS011;16267;48.194;11.546;2023-01-30T06:22:42;44.05;;;22.13;;
29238;SDS011;16267;48.194;11.546;2023-01-30T06:25:07;44.00;;;21.25;;
29238;SDS011;16267;48.194;11.546;2023-01-30T06:27:33;42.53;;;21.13;;
29238;SDS011;16267;48.194;11.546;2023-01-30T06:29:59;43.13;;;20.50;;
29238;SDS011;16267;48.194;11.546;2023-01-30T06:32:25;41.85;;;22.33;;
29238;SDS011;16267;48.194;11.546;2023-01-30T06:34:51;42.05;;;20.70;;
29238;SDS011;16267;48.194;11.546;2023-01-30T06:37:17;44.13;;;22.10;;
29238;SDS011;16267;48.194;11.546;2023-01-30T06:39:43;40.33;;;20.13;;
29238;SDS011;16267;48.194;11.546;2023-01-30T06:42:09;39.53;;;20.33;;
29238;SDS011;16267;48.194;11.546;2023-01-30T06:44:34;41.08;;;20.52;;
29238;SDS011;16267;48.194;11.546;2023-01-30T06:47:00;41.55;;;21.10;;
29238;SDS011;16267;48.194;11.546;2023-01-30T06:49:26;39.47;;;21.30;;
29238;SDS011;16267;48.194;11.546;2023-01-30T06:51:52;40.22;;;20.55;;
29238;SDS011;16267;48.194;11.546;2023-01-30T06:54:18;41.05;;;20.67;;
29238;SDS011;16267;48.194;11.546;2023-01-30T06:56:43;43.72;;;21.65;;
29238;SDS011;16267;48.194;11.546;2023-01-30T06:59:09;39.70;;;20.38;;
29238;SDS011;16267;48.194;11.546;2023-01-30T07:01:35;41.28;;;20.73;;
29238;SDS011;16267;48.194;11.546;2023-01-30T07:04:01;36.13;;;18.52;;
29238;SDS011;16267;48.194;11.546;2023-01-30T07:06:27;37.38;;;19.02;;
29238;SDS011;16267;48.194;11.546;2023-01-30T07:08:53;37.47;;;18.65;;
29238;SDS011;16267;48.194;11.546;2023-01-30T07:11:22;40.72;;;19.50;;
29238;SDS011;16267;48.194;11.546;2023-01-30T07:13:51;37.10;;;19.17;;
29238;SDS011;16267;48.194;11.546;2023-01-30T07:16:17;33.80;;;17.70;;
29238;SDS011;16267;48.194;11.546;2023-01-30T07:18:42;37.92;;;18.02;;
29238;SDS011;16267;48.194;11.546;2023-01-30T07:21:08;35.10;;;18.05;;
29238;SDS011;16267;48.194;11.546;2023-01-30T07:23:34;31.23;;;16.33;;
29238;SDS011;16267;48.194;11.546;2023-01-30T07:26:03;36.22;;;18.23;;
29238;SDS011;16267;48.194;11.546;2023-01-30T07:28:30;31.90;;;16.33;;
29238;SDS011;16267;48.194;11.546;2023-01-30T07:30:59;31.50;;;15.95;;
29238;SDS011;16267;48.194;11.546;2023-01-30T07:33:25;30.67;;;16.40;;
29238;SDS011;16267;48.194;11.546;2023-01-30T07:35:51;30.48;;;16.50;;
29238;SDS011;16267;48.194;11.546;2023-01-30T07:38:17;32.10;;;16.42;;
29238;SDS011;16267;48.194;11.546;2023-01-30T07:40:43;31.25;;;16.35;;
29238;SDS011;16267;48.194;11.546;2023-01-30T07:43:10;28.60;;;15.55;;
29238;SDS011;16267;48.194;11.546;2023-01-30T07:45:45;31.30;;;15.73;;
29238;SDS011;16267;48.194;11.546;2023-01-30T07:48:13;28.85;;;14.55;;
29238;SDS011;16267;48.194;11.546;2023-01-30T07:50:42;27.05;;;15.20;;
29238;SDS011;16267;48.194;11.546;2023-01-30T07:53:10;28.90;;;14.30;;
29238;SDS011;16267;48.194;11.546;2023-01-30T07:55:40;26.02;;;14.18;;
29238;SDS011;16267;48.194;11.546;2023-01-30T07:58:07;26.98;;;14.38;;
29238;SDS011;16267;48.194;11.546;2023-01-30T08:00:36;28.83;;;14.90;;
29238;SDS011;16267;48.194;11.546;2023-01-30T08:03:02;28.00;;;14.85;;
29238;SDS011;16267;48.194;11.546;2023-01-30T08:05:28;26.45;;;15.00;;
29238;SDS011;16267;48.194;11.546;2023-01-30T08:07:54;26.88;;;15.05;;
29238;SDS011;16267;48.194;11.546;2023-01-30T08:10:21;28.33;;;14.98;;
29238;SDS011;16267;48.194;11.546;2023-01-30T08:12:48;29.48;;;15.98;;
29238;SDS011;16267;48.194;11.546;2023-01-30T08:15:15;32.03;;;15.75;;
29238;SDS011;16267;48.194;11.546;2023-01-30T08:17:41;31.77;;;16.70;;
29238;SDS011;16267;48.194;11.546;2023-01-30T08:20:07;33.65;;;15.60;;
29238;SDS011;16267;48.194;11.546;2023-01-30T08:22:34;28.17;;;15.32;;
29238;SDS011;16267;48.194;11.546;2023-01-30T08:24:59;28.08;;;15.27;;
29238;SDS011;16267;48.194;11.546;2023-01-30T08:27:25;27.58;;;15.00;;
29238;SDS011;16267;48.194;11.546;2023-01-30T08:29:51;30.48;;;15.85;;
29238;SDS011;16267;48.194;11.546;2023-01-30T08:32:17;27.40;;;14.20;;
29238;SDS011;16267;48.194;11.546;2023-01-30T08:34:42;26.88;;;14.10;;
29238;SDS011;16267;48.194;11.546;2023-01-30T08:37:08;27.58;;;15.18;;
29238;SDS011;16267;48.194;11.546;2023-01-30T08:39:34;26.02;;;14.57;;
29238;SDS011;16267;48.194;11.546;2023-01-30T08:41:59;27.17;;;15.07;;
29238;SDS011;16267;48.194;11.546;2023-01-30T08:44:25;28.85;;;14.25;;
29238;SDS011;16267;48.194;11.546;2023-01-30T08:46:51;26.40;;;14.45;;
29238;SDS011;16267;48.194;11.546;2023-01-30T08:49:17;24.15;;;13.63;;
29238;SDS011;16267;48.194;11.546;2023-01-30T08:51:43;24.33;;;13.68;;
29238;SDS011;16267;48.194;11.546;2023-01-30T08:54:08;23.13;;;12.88;;
29238;SDS011;16267;48.194;11.546;2023-01-30T08:56:34;25.98;;;14.43;;
29238;SDS011;16267;48.194;11.546;2023-01-30T08:59:00;26.80;;;14.00;;
29238;SDS011;16267;48.194;11.546;2023-01-30T09:01:26;22.88;;;13.27;;
29238;SDS011;16267;48.194;11.546;2023-01-30T09:03:52;23.77;;;14.15;;
29238;SDS011;16267;48.194;11.546;2023-01-30T09:06:18;22.83;;;13.43;;
29238;SDS011;16267;48.194;11.546;2023-01-30T09:08:43;28.08;;;14.63;;
29238;SDS011;16267;48.194;11.546;2023-01-30T09:11:09;25.13;;;14.63;;
29238;SDS011;16267;48.194;11.546;2023-01-30T09:13:36;29.40;;;14.30;;
29238;SDS011;16267;48.194;11.546;2023-01-30T09:16:07;26.02;;;14.02;;
29238;SDS011;16267;48.194;11.546;2023-01-30T09:18:38;25.02;;;14.25;;
29238;SDS011;16267;48.194;11.546;2023-01-30T09:21:07;24.35;;;14.15;;
29238;SDS011;16267;48.194;11.546;2023-01-30T09:23:35;22.58;;;14.07;;
29238;SDS011;16267;48.194;11.546;2023-01-30T09:26:02;22.08;;;12.70;;
29238;SDS011;16267;48.194;11.546;2023-01-30T09:28:30;25.90;;;14.45;;
29238;SDS011;16267;48.194;11.546;2023-01-30T09:30:56;21.10;;;12.63;;
29238;SDS011;16267;48.194;11.546;2023-01-30T09:33:23;25.83;;;14.02;;
29238;SDS011;16267;48.194;11.546;2023-01-30T09:35:49;22.77;;;12.43;;
29238;SDS011;16267;48.194;11.546;2023-01-30T09:38:15;23.27;;;13.73;;
29238;SDS011;16267;48.194;11.546;2023-01-30T09:40:49;23.65;;;13.40;;
29238;SDS011;16267;48.194;11.546;2023-01-30T09:55:26;20.40;;;11.23;;
29238;SDS011;16267;48.194;11.546;2023-01-30T09:57:57;20.63;;;11.77;;
29238;SDS011;16267;48.194;11.546;2023-01-30T10:03:00;23.48;;;12.77;;
29238;SDS011;16267;48.194;11.546;2023-01-30T10:26:10;19.60;;;10.93;;
29238;SDS011;16267;48.194;11.546;2023-01-30T10:28:46;19.25;;;10.32;;
29238;SDS011;16267;48.194;11.546;2023-01-30T10:31:21;19.80;;;10.10;;
29238;SDS011;16267;48.194;11.546;2023-01-30T10:33:54;16.95;;;9.80;;
29238;SDS011;16267;48.194;11.546;2023-01-30T10:36:38;19.27;;;8.98;;
29238;SDS011;16267;48.194;11.546;2023-01-30T10:39:23;16.52;;;9.55;;
29238;SDS011;16267;48.194;11.546;2023-01-30T10:42:09;15.77;;;9.00;;
29238;SDS011;16267;48.194;11.546;2023-01-30T10:44:41;13.55;;;8.52;;
29238;SDS011;16267;48.194;11.546;2023-01-30T10:49:53;13.73;;;8.43;;
29238;SDS011;16267;48.194;11.546;2023-01-30T10:55:06;16.15;;;8.98;;
29238;SDS011;16267;48.194;11.546;2023-01-30T10:57:47;12.40;;;8.10;;
29238;SDS011;16267;48.194;11.546;2023-01-30T11:00:27;15.10;;;8.95;;
29238;SDS011;16267;48.194;11.546;2023-01-30T11:05:41;16.85;;;9.38;;
29238;SDS011;16267;48.194;11.546;2023-01-30T11:08:28;14.68;;;8.32;;
29238;SDS011;16267;48.194;11.546;2023-01-30T11:10:59;11.73;;;6.80;;
29238;SDS011;16267;48.194;11.546;2023-01-30T11:13:43;13.88;;;7.90;;
29238;SDS011;16267;48.194;11.546;2023-01-30T11:16:09;17.20;;;8.93;;
29238;SDS011;16267;48.194;11.546;2023-01-30T11:18:46;16.80;;;8.90;;
29238;SDS011;16267;48.194;11.546;2023-01-30T11:21:24;15.50;;;8.90;;
29238;SDS011;16267;48.194;11.546;2023-01-30T11:23:55;13.15;;;8.30;;
29238;SDS011;16267;48.194;11.546;2023-01-30T11:26:34;15.43;;;8.05;;
29238;SDS011;16267;48.194;11.546;2023-01-30T11:32:03;14.68;;;8.48;;
29238;SDS011;16267;48.194;11.546;2023-01-30T11:37:34;12.73;;;7.72;;
29238;SDS011;16267;48.194;11.546;2023-01-30T11:43:00;15.82;;;7.95;;
29238;SDS011;16267;48.194;11.546;2023-01-30T11:45:33;17.42;;;8.27;;
29238;SDS011;16267;48.194;11.546;2023-01-30T11:48:10;13.70;;;7.97;;
29238;SDS011;16267;48.194;11.546;2023-01-30T11:50:43;17.00;;;7.82;;
29238;SDS011;16267;48.194;11.546;2023-01-30T11:53:15;13.32;;;7.55;;
29238;SDS011;16267;48.194;11.546;2023-01-30T11:56:19;16.77;;;7.85;;
29238;SDS011;16267;48.194;11.546;2023-01-30T11:59:04;11.57;;;7.03;;
29238;SDS011;16267;48.194;11.546;2023-01-30T12:02:18;14.50;;;7.95;;
29238;SDS011;16267;48.194;11.546;2023-01-30T12:04:54;16.77;;;7.57;;
29238;SDS011;16267;48.194;11.546;2023-01-30T12:07:26;14.00;;;7.85;;
29238;SDS011;16267;48.194;11.546;2023-01-30T12:09:55;13.18;;;7.20;;
29238;SDS011;16267;48.194;11.546;2023-01-30T12:12:27;12.20;;;7.03;;
29238;SDS011;16267;48.194;11.546;2023-01-30T12:25:40;13.07;;;7.70;;
29238;SDS011;16267;48.194;11.546;2023-01-30T12:30:55;13.13;;;7.40;;
29238;SDS011;16267;48.194;11.546;2023-01-30T12:33:32;12.75;;;7.20;;
29238;SDS011;16267;48.194;11.546;2023-01-30T12:36:08;12.13;;;7.13;;
29238;SDS011;16267;48.194;11.546;2023-01-30T12:38:53;14.73;;;7.97;;
29238;SDS011;16267;48.194;11.546;2023-01-30T13:04:05;11.23;;;6.40;;
29238;SDS011;16267;48.194;11.546;2023-01-30T13:15:31;10.00;;;5.95;;
29238;SDS011;16267;48.194;11.546;2023-01-30T13:21:18;9.90;;;6.03;;
29238;SDS011;16267;48.194;11.546;2023-01-30T13:27:14;9.57;;;5.72;;
29238;SDS011;16267;48.194;11.546;2023-01-30T13:29:43;12.70;;;6.03;;
29238;SDS011;16267;48.194;11.546;2023-01-30T13:32:55;11.98;;;6.20;;
29238;SDS011;16267;48.194;11.546;2023-01-30T13:35:04;10.30;;;5.80;;
29238;SDS011;16267;48.194;11.546;2023-01-30T13:37:54;11.82;;;5.80;;
29238;SDS011;16267;48.194;11.546;2023-01-30T13:40:24;9.60;;;5.53;;
29238;SDS011;16267;48.194;11.546;2023-01-30T13:42:57;10.00;;;6.38;;
29238;SDS011;16267;48.194;11.546;2023-01-30T13:45:39;9.90;;;5.95;;
29238;SDS011;16267;48.194;11.546;2023-01-30T14:08:16;10.13;;;5.95;;
29238;SDS011;16267;48.194;11.546;2023-01-30T14:11:01;12.75;;;5.93;;
29238;SDS011;16267;48.194;11.546;2023-01-30T14:13:27;10.70;;;6.28;;
29238;SDS011;16267;48.194;11.546;2023-01-30T14:18:29;9.20;;;5.85;;
29238;SDS011;16267;48.194;11.546;2023-01-30T14:23:55;10.57;;;5.30;;
29238;SDS011;16267;48.194;11.546;2023-01-30T14:27:00;13.00;;;5.57;;
29238;SDS011;16267;48.194;11.546;2023-01-30T14:34:38;10.52;;;6.43;;
29238;SDS011;16267;48.194;11.546;2023-01-30T14:39:52;14.57;;;6.50;;
29238;SDS011;16267;48.194;11.546;2023-01-30T14:53:49;15.75;;;7.80;;
29238;SDS011;16267;48.194;11.546;2023-01-30T15:26:53;17.33;;;9.65;;
29238;SDS011;16267;48.194;11.546;2023-01-30T15:30:21;17.25;;;9.80;;
29238;SDS011;16267;48.194;11.546;2023-01-30T15:33:17;17.13;;;10.02;;
29238;SDS011;16267;48.194;11.546;2023-01-30T15:35:45;19.02;;;10.68;;
29238;SDS011;16267;48.194;11.546;2023-01-30T15:38:21;20.77;;;9.68;;
29238;SDS011;16267;48.194;11.546;2023-01-30T15:41:03;18.38;;;9.30;;
29238;SDS011;16267;48.194;11.546;2023-01-30T15:51:51;16.60;;;9.55;;
29238;SDS011;16267;48.194;11.546;2023-01-30T15:54:18;18.35;;;9.40;;
29238;SDS011;16267;48.194;11.546;2023-01-30T15:56:47;16.95;;;9.43;;
29238;SDS011;16267;48.194;11.546;2023-01-30T15:59:47;14.38;;;8.80;;
29238;SDS011;16267;48.194;11.546;2023-01-30T16:02:10;13.03;;;7.90;;
29238;SDS011;16267;48.194;11.546;2023-01-30T16:04:40;17.85;;;9.40;;
29238;SDS011;16267;48.194;11.546;2023-01-30T16:07:13;17.17;;;8.82;;
29238;SDS011;16267;48.194;11.546;2023-01-30T16:09:56;16.48;;;9.27;;
29238;SDS011;16267;48.194;11.546;2023-01-30T16:12:23;14.98;;;8.40;;
29238;SDS011;16267;48.194;11.546;2023-01-30T16:14:54;13.93;;;8.85;;
29238;SDS011;16267;48.194;11.546;2023-01-30T16:17:24;15.20;;;9.05;;
29238;SDS011;16267;48.194;11.546;2023-01-30T16:19:53;14.88;;;8.90;;
29238;SDS011;16267;48.194;11.546;2023-01-30T16:22:20;13.20;;;8.20;;
29238;SDS011;16267;48.194;11.546;2023-01-30T16:24:48;16.90;;;9.32;;
29238;SDS011;16267;48.194;11.546;2023-01-30T16:27:39;14.15;;;8.02;;
29238;SDS011;16267;48.194;11.546;2023-01-30T16:30:05;14.77;;;8.73;;
29238;SDS011;16267;48.194;11.546;2023-01-30T16:32:33;14.80;;;8.63;;
29238;SDS011;16267;48.194;11.546;2023-01-30T16:37:47;16.83;;;9.35;;
29238;SDS011;16267;48.194;11.546;2023-01-30T16:40:15;18.58;;;10.05;;
29238;SDS011;16267;48.194;11.546;2023-01-30T16:49:14;16.08;;;8.40;;
29238;SDS011;16267;48.194;11.546;2023-01-30T16:51:48;14.45;;;8.88;;
29238;SDS011;16267;48.194;11.546;2023-01-30T16:54:23;17.52;;;8.70;;
29238;SDS011;16267;48.194;11.546;2023-01-30T16:56:54;12.90;;;7.65;;
29238;SDS011;16267;48.194;11.546;2023-01-30T16:59:29;23.67;;;8.88;;
29238;SDS011;16267;48.194;11.546;2023-01-30T17:02:00;14.07;;;8.13;;
29238;SDS011;16267;48.194;11.546;2023-01-30T17:04:30;16.77;;;8.95;;
29238;SDS011;16267;48.194;11.546;2023-01-30T17:06:59;15.05;;;9.70;;
29238;SDS011;16267;48.194;11.546;2023-01-30T17:09:33;16.63;;;8.68;;
29238;SDS011;16267;48.194;11.546;2023-01-30T17:12:52;15.82;;;9.20;;
29238;SDS011;16267;48.194;11.546;2023-01-30T17:17:45;15.93;;;9.60;;
29238;SDS011;16267;48.194;11.546;2023-01-30T17:20:11;21.10;;;10.15;;
29238;SDS011;16267;48.194;11.546;2023-01-30T17:22:43;17.13;;;9.98;;
29238;SDS011;16267;48.194;11.546;2023-01-30T17:28:07;16.70;;;10.02;;
29238;SDS011;16267;48.194;11.546;2023-01-30T17:30:42;17.65;;;9.85;;
29238;SDS011;16267;48.194;11.546;2023-01-30T17:33:07;17.13;;;10.23;;
29238;SDS011;16267;48.194;11.546;2023-01-30T17:35:36;19.33;;;10.70;;
29238;SDS011;16267;48.194;11.546;2023-01-30T17:38:02;18.77;;;10.43;;
29238;SDS011;16267;48.194;11.546;2023-01-30T17:40:30;15.93;;;9.45;;
29238;SDS011;16267;48.194;11.546;2023-01-30T17:43:01;16.67;;;10.02;;
29238;SDS011;16267;48.194;11.546;2023-01-30T17:45:28;15.43;;;9.38;;
29238;SDS011;16267;48.194;11.546;2023-01-30T17:47:54;16.35;;;9.73;;
29238;SDS011;16267;48.194;11.546;2023-01-30T17:50:20;16.42;;;10.07;;
29238;SDS011;16267;48.194;11.546;2023-01-30T17:52:45;17.63;;;10.35;;
29238;SDS011;16267;48.194;11.546;2023-01-30T17:55:11;16.38;;;9.63;;
29238;SDS011;16267;48.194;11.546;2023-01-30T17:57:43;16.60;;;9.35;;
29238;SDS011;16267;48.194;11.546;2023-01-30T18:00:18;17.35;;;9.30;;
29238;SDS011;16267;48.194;11.546;2023-01-30T18:02:45;15.43;;;8.20;;
29238;SDS011;16267;48.194;11.546;2023-01-30T18:05:11;16.25;;;9.30;;
29238;SDS011;16267;48.194;11.546;2023-01-30T18:07:37;16.40;;;10.10;;
29238;SDS011;16267;48.194;11.546;2023-01-30T18:10:04;16.60;;;8.77;;
29238;SDS011;16267;48.194;11.546;2023-01-30T18:12:31;16.98;;;9.45;;
29238;SDS011;16267;48.194;11.546;2023-01-30T18:14:57;15.18;;;9.30;;
29238;SDS011;16267;48.194;11.546;2023-01-30T18:17:23;15.07;;;9.18;;
29238;SDS011;16267;48.194;11.546;2023-01-30T18:19:52;15.45;;;8.60;;
29238;SDS011;16267;48.194;11.546;2023-01-30T18:22:19;16.98;;;9.60;;
29238;SDS011;16267;48.194;11.546;2023-01-30T18:24:46;15.70;;;9.10;;
29238;SDS011;16267;48.194;11.546;2023-01-30T18:27:11;15.32;;;8.82;;
29238;SDS011;16267;48.194;11.546;2023-01-30T18:29:37;14.60;;;8.55;;
29238;SDS011;16267;48.194;11.546;2023-01-30T18:32:03;16.50;;;8.60;;